createdAt,value
2019-03-10T00:00:31.113Z,100562.91
2019-03-10T00:02:59.542Z,100557.61
2019-03-10T00:05:28.018Z,100558.48
2019-03-10T00:07:56.526Z,100551.80
2019-03-10T00:10:25.011Z,100547.22
2019-03-10T00:12:53.525Z,100548.58
2019-03-10T00:15:21.945Z,100540.06
2019-03-10T00:17:50.437Z,100537.34
2019-03-10T00:20:19.587Z,100530.53
2019-03-10T00:22:48.008Z,100522.37
2019-03-10T00:25:16.489Z,100518.94
2019-03-10T00:27:45.012Z,100523.36
2019-03-10T00:30:16.429Z,100519.98
2019-03-10T00:32:44.985Z,100526.95
2019-03-10T00:35:14.069Z,100530.16
2019-03-10T00:37:42.535Z,100533.27
2019-03-10T00:40:48.213Z,100530.16
2019-03-10T00:43:34.866Z,100527.10
2019-03-10T00:46:24.766Z,100524.72
2019-03-10T00:49:02.003Z,100512.47
2019-03-10T00:51:48.620Z,100508.91
2019-03-10T00:54:17.053Z,100502.59
2019-03-10T00:56:45.469Z,100497.16
2019-03-10T00:59:13.915Z,100488.98
2019-03-10T01:01:42.332Z,100489.32
2019-03-10T01:04:10.899Z,100486.26
2019-03-10T01:06:39.438Z,100476.23
2019-03-10T01:09:07.845Z,100482.52
2019-03-10T01:11:36.513Z,100480.17
2019-03-10T01:14:04.993Z,100476.92
2019-03-10T01:16:34.045Z,100473.36
2019-03-10T01:19:03.299Z,100468.91
2019-03-10T01:21:34.378Z,100452.56
2019-03-10T01:24:02.790Z,100450.70
2019-03-10T01:26:31.213Z,100455.29
2019-03-10T01:28:59.660Z,100454.30
2019-03-10T01:31:31.124Z,100454.30
2019-03-10T01:34:05.483Z,100442.39
2019-03-10T01:36:32.736Z,100442.39
2019-03-10T01:39:01.193Z,100420.27
2019-03-10T01:41:29.609Z,100416.19
2019-03-10T01:43:58.070Z,100410.89
2019-03-10T01:46:26.494Z,100403.22
2019-03-10T01:48:54.954Z,100402.73
2019-03-10T01:51:23.366Z,100401.86
2019-03-10T01:53:51.773Z,100385.52
2019-03-10T01:56:20.218Z,100382.95
2019-03-10T01:58:48.647Z,100371.57
2019-03-10T02:01:17.059Z,100367.83
2019-03-10T02:03:45.500Z,100365.97
2019-03-10T02:06:13.920Z,100369.19
2019-03-10T02:08:42.360Z,100360.69
2019-03-10T02:11:10.789Z,100351.65
2019-03-10T02:13:39.263Z,100356.44
2019-03-10T02:16:07.936Z,100341.25
2019-03-10T02:18:36.365Z,100336.18
2019-03-10T02:21:04.871Z,100310.48
2019-03-10T02:23:33.304Z,100295.34
2019-03-10T02:26:01.742Z,100296.33
2019-03-10T02:28:30.180Z,100296.86
2019-03-10T02:30:58.603Z,100291.58
2019-03-10T02:33:27.019Z,100277.80
2019-03-10T02:35:55.450Z,100266.05
2019-03-10T02:38:23.871Z,100251.23
2019-03-10T02:40:52.300Z,100232.18
2019-03-10T02:43:20.775Z,100225.38
2019-03-10T02:45:49.256Z,100211.43
2019-03-10T02:48:17.664Z,100195.09
2019-03-10T02:50:46.130Z,100167.88
2019-03-10T02:53:14.575Z,100144.37
2019-03-10T02:55:43.082Z,100134.34
2019-03-10T02:58:11.518Z,100143.88
2019-03-10T03:00:39.963Z,100143.88
2019-03-10T03:03:08.363Z,100167.01
2019-03-10T03:05:36.801Z,100193.20
2019-03-10T03:08:05.230Z,100190.15
2019-03-10T03:10:33.630Z,100179.75
2019-03-10T03:13:02.228Z,100178.06
2019-03-10T03:15:30.660Z,100179.26
2019-03-10T03:17:59.200Z,100162.92
2019-03-10T03:20:27.597Z,100156.62
2019-03-10T03:22:56.000Z,100148.98
2019-03-10T03:25:24.610Z,100139.45
2019-03-10T03:27:53.053Z,100129.56
2019-03-10T03:30:21.737Z,100114.59
2019-03-10T03:32:50.198Z,100110.50
2019-03-10T03:35:44.351Z,100101.84
2019-03-10T03:38:12.788Z,100101.34
2019-03-10T03:40:44.247Z,100094.17
2019-03-10T03:43:12.658Z,100084.15
2019-03-10T03:45:41.078Z,100075.13
2019-03-10T03:48:09.494Z,100060.15
2019-03-10T03:50:37.918Z,100053.87
2019-03-10T03:53:06.344Z,100048.42
2019-03-10T03:55:34.803Z,100040.43
2019-03-10T03:58:03.220Z,100038.70
2019-03-10T04:00:31.635Z,100036.67
2019-03-10T04:03:00.078Z,100034.98
2019-03-10T04:05:28.520Z,100023.23
2019-03-10T04:07:56.949Z,100015.06
2019-03-10T04:10:25.389Z,100008.42
2019-03-10T04:12:53.805Z,99999.40
2019-03-10T04:15:22.210Z,99993.13
2019-03-10T04:17:50.639Z,99992.06
2019-03-10T04:20:19.136Z,99983.56
2019-03-10T04:22:47.562Z,99976.77
2019-03-10T04:25:15.972Z,99980.18
2019-03-10T04:27:44.418Z,99978.82
2019-03-10T04:30:13.490Z,99971.31
2019-03-10T04:32:41.908Z,99962.98
2019-03-10T04:35:10.336Z,99955.81
2019-03-10T04:37:38.761Z,99957.18
2019-03-10T04:40:07.421Z,99950.38
2019-03-10T04:42:35.826Z,99950.54
2019-03-10T04:45:06.096Z,99955.66
2019-03-10T04:47:34.526Z,99938.46
2019-03-10T04:50:02.956Z,99930.83
2019-03-10T04:52:31.359Z,99921.97
2019-03-10T04:55:04.348Z,99913.11
2019-03-10T04:57:32.750Z,99903.41
2019-03-10T05:00:01.172Z,99905.48
2019-03-10T05:02:29.572Z,99893.73
2019-03-10T05:04:58.018Z,99887.95
2019-03-10T05:07:26.427Z,99880.79
2019-03-10T05:09:54.839Z,99855.97
2019-03-10T05:12:23.277Z,99841.50
2019-03-10T05:14:51.680Z,99830.79
2019-03-10T05:17:20.089Z,99820.58
2019-03-10T05:19:48.517Z,99807.14
2019-03-10T05:22:16.949Z,99804.59
2019-03-10T05:24:45.397Z,99805.62
2019-03-10T05:27:13.820Z,99796.59
2019-03-10T05:29:42.231Z,99794.91
2019-03-10T05:32:10.663Z,99800.17
2019-03-10T05:34:39.059Z,99796.59
2019-03-10T05:37:07.480Z,99794.04
2019-03-10T05:39:35.880Z,99800.34
2019-03-10T05:42:04.307Z,99785.88
2019-03-10T05:44:32.742Z,99779.25
2019-03-10T05:47:01.177Z,99773.31
2019-03-10T05:49:29.577Z,99776.89
2019-03-10T05:51:58.001Z,99770.59
2019-03-10T05:54:26.411Z,99764.65
2019-03-10T05:56:54.866Z,99752.41
2019-03-10T05:59:23.306Z,99744.41
2019-03-10T06:01:51.718Z,99739.14
2019-03-10T06:04:20.145Z,99726.05
2019-03-10T06:06:48.585Z,99726.54
2019-03-10T06:09:16.989Z,99718.91
2019-03-10T06:11:45.384Z,99712.11
2019-03-10T06:14:13.831Z,99713.97
2019-03-10T06:16:42.267Z,99709.89
2019-03-10T06:19:10.706Z,99703.59
2019-03-10T06:21:39.137Z,99700.20
2019-03-10T06:24:07.559Z,99690.68
2019-03-10T06:26:36.002Z,99683.88
2019-03-10T06:29:04.461Z,99678.94
2019-03-10T06:31:32.827Z,99677.75
2019-03-10T06:34:01.271Z,99672.84
2019-03-10T06:36:29.683Z,99661.43
2019-03-10T06:38:58.110Z,99661.80
2019-03-10T06:41:26.525Z,99657.72
2019-03-10T06:43:54.951Z,99646.14
2019-03-10T06:46:23.361Z,99650.05
2019-03-10T06:48:51.801Z,99643.75
2019-03-10T06:51:20.231Z,99644.78
2019-03-10T06:53:48.627Z,99643.25
2019-03-10T06:56:17.091Z,99632.55
2019-03-10T06:58:45.511Z,99624.05
2019-03-10T07:01:13.952Z,99637.30
2019-03-10T07:03:42.358Z,99634.58
2019-03-10T07:06:10.762Z,99627.28
2019-03-10T07:08:39.185Z,99621.84
2019-03-10T07:11:07.623Z,99617.26
2019-03-10T07:13:36.030Z,99614.17
2019-03-10T07:16:04.471Z,99616.89
2019-03-10T07:18:32.909Z,99611.81
2019-03-10T07:21:01.323Z,99613.83
2019-03-10T07:23:29.726Z,99606.53
2019-03-10T07:26:07.150Z,99604.31
2019-03-10T07:28:43.757Z,99597.87
2019-03-10T07:31:13.811Z,99592.44
2019-03-10T07:33:43.843Z,99594.12
2019-03-10T07:36:19.725Z,99594.63
2019-03-10T07:38:58.489Z,99581.88
2019-03-10T07:41:34.385Z,99585.46
2019-03-10T07:44:10.543Z,99586.65
2019-03-10T07:46:49.319Z,99579.85
2019-03-10T07:49:34.404Z,99562.67
2019-03-10T07:52:04.480Z,99561.31
2019-03-10T07:54:52.579Z,99554.01
2019-03-10T07:57:31.656Z,99556.73
2019-03-10T08:00:17.864Z,99555.87
2019-03-10T08:02:47.925Z,99554.84
2019-03-10T08:05:34.094Z,99547.70
2019-03-10T08:08:19.213Z,99547.53
2019-03-10T08:10:55.162Z,99547.86
2019-03-10T08:13:27.653Z,99549.22
2019-03-10T08:15:57.708Z,99558.74
2019-03-10T08:18:33.812Z,99553.84
2019-03-10T08:21:09.882Z,99546.17
2019-03-10T08:23:49.072Z,99541.42
2019-03-10T08:26:27.879Z,99540.72
2019-03-10T08:28:57.952Z,99531.19
2019-03-10T08:31:39.942Z,99535.78
2019-03-10T08:34:12.967Z,99537.83
2019-03-10T08:36:45.992Z,99533.92
2019-03-10T08:39:33.970Z,99531.53
2019-03-10T08:42:20.450Z,99519.11
2019-03-10T08:44:56.944Z,99525.91
2019-03-10T08:47:29.686Z,99518.11
2019-03-10T08:49:59.746Z,99505.87
2019-03-10T08:52:38.597Z,99519.80
2019-03-10T08:55:26.224Z,99511.45
2019-03-10T08:57:56.300Z,99502.80
2019-03-10T09:00:41.716Z,99511.96
2019-03-10T09:03:17.534Z,99495.82
2019-03-10T09:05:59.638Z,99491.02
2019-03-10T09:08:41.856Z,99488.98
2019-03-10T09:11:11.916Z,99482.87
2019-03-10T09:13:44.784Z,99482.34
2019-03-10T09:16:23.826Z,99490.30
2019-03-10T09:19:09.247Z,99489.94
2019-03-10T09:21:39.293Z,99505.20
2019-03-10T09:24:09.375Z,99488.84
2019-03-10T09:26:45.106Z,99507.90
2019-03-10T09:29:18.118Z,99493.57
2019-03-10T09:31:54.126Z,99499.48
2019-03-10T09:34:24.232Z,99482.59
2019-03-10T09:36:59.810Z,99464.70
2019-03-10T09:39:29.894Z,99467.07
2019-03-10T09:42:12.230Z,99461.58
2019-03-10T09:44:57.575Z,99461.41
2019-03-10T09:47:42.539Z,99476.38
2019-03-10T09:50:12.721Z,99467.89
2019-03-10T09:52:48.462Z,99468.75
2019-03-10T09:55:27.598Z,99462.40
2019-03-10T09:58:03.286Z,99458.63
2019-03-10T10:00:49.339Z,99454.98
2019-03-10T10:03:36.000Z,99451.53
2019-03-10T10:06:06.072Z,99453.55
2019-03-10T10:08:36.150Z,99455.38
2019-03-10T10:11:15.444Z,99457.78
2019-03-10T10:13:45.530Z,99457.78
2019-03-10T10:16:21.190Z,99444.16
2019-03-10T10:18:51.253Z,99441.61
2019-03-10T10:21:23.852Z,99441.80
2019-03-10T10:23:53.918Z,99434.63
2019-03-10T10:26:29.688Z,99448.80
2019-03-10T10:29:08.922Z,99440.08
2019-03-10T10:31:39.000Z,99442.48
2019-03-10T10:34:09.098Z,99438.58
2019-03-10T10:36:39.187Z,99453.25
2019-03-10T10:39:26.646Z,99430.59
2019-03-10T10:41:59.203Z,99420.02
2019-03-10T10:44:34.978Z,99435.30
2019-03-10T10:47:13.964Z,99448.19
2019-03-10T10:49:49.891Z,99444.09
2019-03-10T10:52:26.117Z,99438.91
2019-03-10T10:54:56.214Z,99437.02
2019-03-10T10:57:34.930Z,99435.84
2019-03-10T11:00:06.478Z,99432.08
2019-03-10T11:02:39.597Z,99436.30
2019-03-10T11:05:28.525Z,99438.18
2019-03-10T11:08:04.431Z,99435.09
2019-03-10T11:10:43.537Z,99433.66
2019-03-10T11:13:16.359Z,99435.33
2019-03-10T11:15:58.428Z,99420.50
2019-03-10T11:18:40.827Z,99416.67
2019-03-10T11:21:17.150Z,99402.47
2019-03-10T11:23:53.153Z,99404.80
2019-03-10T11:26:32.689Z,99403.84
2019-03-10T11:29:03.931Z,99404.65
2019-03-10T11:31:34.196Z,99398.81
2019-03-10T11:34:22.321Z,99407.69
2019-03-10T11:37:01.264Z,99398.87
2019-03-10T11:39:46.691Z,99389.83
2019-03-10T11:42:34.923Z,99376.67
2019-03-10T11:45:08.095Z,99351.66
2019-03-10T11:47:46.885Z,99358.91
2019-03-10T11:50:28.882Z,99355.00
2019-03-10T11:53:19.168Z,99352.59
2019-03-10T11:55:43.000Z,99367.52
2019-03-10T11:58:13.128Z,99340.85
2019-03-10T12:00:48.582Z,99364.52
2019-03-10T12:03:36.741Z,99360.84
2019-03-10T12:06:06.793Z,99345.23
2019-03-10T12:08:40.080Z,99336.95
2019-03-10T12:11:08.578Z,99318.43
2019-03-10T12:13:37.010Z,99322.83
2019-03-10T12:16:05.443Z,99329.89
2019-03-10T12:18:33.853Z,99304.44
2019-03-10T12:21:02.280Z,99305.72
2019-03-10T12:23:30.755Z,99284.20
2019-03-10T12:25:59.197Z,99308.91
2019-03-10T12:28:27.649Z,99291.05
2019-03-10T12:30:56.075Z,99289.34
2019-03-10T12:33:24.480Z,99298.30
2019-03-10T12:35:52.906Z,99316.55
2019-03-10T12:38:21.328Z,99301.00
2019-03-10T12:40:49.774Z,99303.34
2019-03-10T12:43:18.181Z,99308.04
2019-03-10T12:45:46.626Z,99353.11
2019-03-10T12:48:15.061Z,99302.59
2019-03-10T12:50:43.474Z,99296.97
2019-03-10T12:53:11.921Z,99294.94
2019-03-10T12:55:40.368Z,99304.52
2019-03-10T12:58:08.811Z,99300.30
2019-03-10T13:00:37.228Z,99330.37
2019-03-10T13:03:05.689Z,99271.17
2019-03-10T13:05:34.176Z,99304.02
2019-03-10T13:08:02.591Z,99304.11
2019-03-10T13:10:31.031Z,99304.22
2019-03-10T13:12:59.453Z,99301.33
2019-03-10T13:15:27.856Z,99314.66
2019-03-10T13:17:56.278Z,99303.66
2019-03-10T13:20:28.418Z,99311.98
2019-03-10T13:22:54.862Z,99313.17
2019-03-10T13:25:23.289Z,99318.52
2019-03-10T13:27:51.784Z,99310.28
2019-03-10T13:30:20.273Z,99335.64
2019-03-10T13:32:48.707Z,99340.43
2019-03-10T13:35:17.165Z,99334.82
2019-03-10T13:37:45.589Z,99349.41
2019-03-10T13:40:15.337Z,99338.64
2019-03-10T13:42:43.743Z,99349.85
2019-03-10T13:45:14.228Z,99356.14
2019-03-10T13:47:42.639Z,99357.12
2019-03-10T13:50:13.333Z,99383.80
2019-03-10T13:52:41.838Z,99376.80
2019-03-10T13:55:10.603Z,99383.13
2019-03-10T13:57:39.086Z,99397.94
2019-03-10T14:00:27.146Z,99425.20
2019-03-10T14:02:55.573Z,99426.85
2019-03-10T14:05:24.176Z,99433.45
2019-03-10T14:07:52.662Z,99422.44
2019-03-10T14:10:21.114Z,99449.56
2019-03-10T14:12:49.598Z,99440.21
2019-03-10T14:15:18.286Z,99463.34
2019-03-10T14:17:46.748Z,99453.10
2019-03-10T14:20:16.214Z,99469.14
2019-03-10T14:22:44.650Z,99471.00
2019-03-10T14:25:15.401Z,99490.97
2019-03-10T14:27:44.042Z,99496.39
2019-03-10T14:30:17.700Z,99513.10
2019-03-10T14:32:46.102Z,99524.84
2019-03-10T14:35:15.190Z,99518.25
2019-03-10T14:37:43.617Z,99536.80
2019-03-10T14:40:14.851Z,99503.20
2019-03-10T14:42:43.258Z,99567.77
2019-03-10T14:47:51.000Z,99562.53
2019-03-10T14:50:20.174Z,99608.84
2019-03-10T14:52:48.580Z,99596.25
2019-03-10T14:55:18.869Z,99615.47
2019-03-10T14:57:47.314Z,99627.30
2019-03-10T15:00:24.238Z,99633.36
2019-03-10T15:02:52.791Z,99638.55
2019-03-10T15:05:21.358Z,99644.27
2019-03-10T15:07:49.827Z,99690.59
2019-03-10T15:10:18.272Z,99644.18
2019-03-10T15:12:46.807Z,99676.00
2019-03-10T15:15:23.284Z,99671.96
2019-03-10T15:17:51.801Z,99673.36
2019-03-10T15:20:21.647Z,99694.90
2019-03-10T15:22:50.401Z,99705.03
2019-03-10T15:25:20.983Z,99723.71
2019-03-10T15:27:49.567Z,99725.10
2019-03-10T15:30:22.301Z,99737.27
2019-03-10T15:32:50.744Z,99734.36
2019-03-10T15:35:19.143Z,99749.45
2019-03-10T15:37:47.610Z,99757.16
2019-03-10T15:40:18.042Z,99753.97
2019-03-10T15:42:47.030Z,99759.45
2019-03-10T15:45:16.577Z,99762.88
2019-03-10T15:47:45.117Z,99775.35
2019-03-10T15:50:19.406Z,99795.20
2019-03-10T15:52:47.991Z,99800.48
2019-03-10T15:55:16.420Z,99815.69
2019-03-10T15:57:50.083Z,99828.03
2019-03-10T16:00:17.421Z,99848.02
2019-03-10T16:02:45.844Z,99856.75
2019-03-10T16:05:14.415Z,99886.80
2019-03-10T16:07:42.901Z,99884.92
2019-03-10T16:10:13.281Z,99889.06
2019-03-10T16:12:41.690Z,99892.66
2019-03-10T16:15:15.126Z,99885.51
2019-03-10T16:17:45.818Z,99925.45
2019-03-10T16:20:14.810Z,99905.34
2019-03-10T16:22:43.246Z,99892.20
2019-03-10T16:25:13.283Z,99917.45
2019-03-10T16:27:41.779Z,99921.22
2019-03-10T16:30:16.208Z,99922.08
2019-03-10T16:32:44.643Z,99928.61
2019-03-10T16:35:13.207Z,99936.46
2019-03-10T16:37:41.705Z,99945.51
2019-03-10T16:40:16.070Z,99934.63
2019-03-10T16:42:44.734Z,99936.16
2019-03-10T16:45:20.254Z,99941.13
2019-03-10T16:47:48.800Z,99950.17
2019-03-10T16:50:23.009Z,99959.38
2019-03-10T16:52:51.528Z,99963.66
2019-03-10T16:55:20.123Z,99968.77
2019-03-10T16:57:48.548Z,99972.38
2019-03-10T17:00:19.646Z,99980.91
2019-03-10T17:02:48.252Z,99981.26
2019-03-10T17:05:20.584Z,99976.30
2019-03-10T17:07:49.193Z,99991.64
2019-03-10T17:10:28.118Z,99998.80
2019-03-10T17:12:56.696Z,99992.00
2019-03-10T17:15:25.930Z,99999.98
2019-03-10T17:17:54.536Z,99993.16
2019-03-10T17:20:23.022Z,100013.44
2019-03-10T17:22:51.516Z,100016.16
2019-03-10T17:25:19.902Z,100033.20
2019-03-10T17:27:48.568Z,100032.19
2019-03-10T17:30:23.491Z,100046.48
2019-03-10T17:32:52.102Z,100069.99
2019-03-10T17:35:21.088Z,100079.70
2019-03-10T17:37:49.757Z,100114.94
2019-03-10T17:40:19.224Z,100134.34
2019-03-10T17:42:47.703Z,100140.50
2019-03-10T17:45:17.900Z,100129.40
2019-03-10T17:47:46.469Z,100136.38
2019-03-10T17:50:16.351Z,100150.00
2019-03-10T17:52:44.852Z,100153.23
2019-03-10T17:55:15.596Z,100161.23
2019-03-10T17:57:44.104Z,100161.41
2019-03-10T18:00:37.258Z,100153.56
2019-03-10T18:03:05.737Z,100166.81
2019-03-10T18:05:34.166Z,100165.82
2019-03-10T18:08:02.595Z,100180.80
2019-03-10T18:10:31.004Z,100191.50
2019-03-10T18:12:59.429Z,100207.85
2019-03-10T18:15:27.887Z,100196.28
2019-03-10T18:17:56.306Z,100197.65
2019-03-10T18:20:25.109Z,100215.69
2019-03-10T18:22:53.538Z,100216.67
2019-03-10T18:25:21.982Z,100227.95
2019-03-10T18:27:50.483Z,100229.97
2019-03-10T18:30:19.805Z,100231.83
2019-03-10T18:32:48.590Z,100258.23
2019-03-10T18:35:17.034Z,100255.30
2019-03-10T18:37:45.525Z,100247.63
2019-03-10T18:40:19.631Z,100255.96
2019-03-10T18:42:48.110Z,100273.00
2019-03-10T18:45:18.187Z,100261.73
2019-03-10T18:47:46.623Z,100278.77
2019-03-10T18:50:17.571Z,100279.43
2019-03-10T18:52:46.087Z,100288.26
2019-03-10T18:55:16.346Z,100291.14
2019-03-10T18:57:44.821Z,100292.17
2019-03-10T19:00:24.111Z,100291.30
2019-03-10T19:02:52.636Z,100298.27
2019-03-10T19:05:21.118Z,100292.28
2019-03-10T19:07:49.692Z,100299.25
2019-03-10T19:10:18.215Z,100301.97
2019-03-10T19:12:46.633Z,100305.72
2019-03-10T19:15:18.098Z,100301.63
2019-03-10T19:17:46.537Z,100314.88
2019-03-10T19:20:15.601Z,100314.52
2019-03-10T19:22:44.169Z,100329.16
2019-03-10T19:25:16.836Z,100347.01
2019-03-10T19:27:45.520Z,100349.89
2019-03-10T19:30:16.985Z,100366.55
2019-03-10T19:32:45.458Z,100370.47
2019-03-10T19:35:14.045Z,100393.77
2019-03-10T19:37:42.586Z,100429.17
2019-03-10T19:40:14.083Z,100445.02
2019-03-10T19:42:42.531Z,100460.33
2019-03-10T19:45:16.605Z,100466.98
2019-03-10T19:47:45.045Z,100474.81
2019-03-10T19:50:16.249Z,100471.04
2019-03-10T19:52:44.667Z,100474.59
2019-03-10T19:55:14.649Z,100480.57
2019-03-10T19:57:43.061Z,100480.20
2019-03-10T20:00:19.558Z,100481.87
2019-03-10T20:02:48.044Z,100479.30
2019-03-10T20:05:16.667Z,100472.65
2019-03-10T20:07:45.600Z,100492.05
2019-03-10T20:10:25.967Z,100501.58
2019-03-10T20:12:54.499Z,100486.97
2019-03-10T20:15:26.121Z,100504.52
2019-03-10T20:17:54.637Z,100509.09
2019-03-10T20:20:25.576Z,100510.77
2019-03-10T20:22:53.991Z,100521.31
2019-03-10T20:25:22.442Z,100529.48
2019-03-10T20:27:50.878Z,100524.38
2019-03-10T20:30:23.563Z,100534.41
2019-03-10T20:32:52.009Z,100530.47
2019-03-10T20:35:20.469Z,100535.23
2019-03-10T20:37:48.888Z,100535.54
2019-03-10T20:40:19.527Z,100535.69
2019-03-10T20:42:47.966Z,100527.30
2019-03-10T20:45:16.637Z,100529.69
2019-03-10T20:47:45.115Z,100542.95
2019-03-10T20:50:15.406Z,100535.44
2019-03-10T20:52:43.816Z,100539.82
2019-03-10T20:55:13.070Z,100546.25
2019-03-10T20:57:41.526Z,100537.55
2019-03-10T21:00:21.481Z,100557.59
2019-03-10T21:02:49.911Z,100555.39
2019-03-10T21:05:18.317Z,100557.41
2019-03-10T21:07:46.938Z,100568.78
2019-03-10T21:10:17.643Z,100572.17
2019-03-10T21:12:46.098Z,100574.52
2019-03-10T21:15:18.603Z,100611.94
2019-03-10T21:17:47.198Z,100607.33
2019-03-10T21:20:17.375Z,100605.63
2019-03-10T21:22:46.062Z,100609.86
2019-03-10T21:25:21.791Z,100601.47
2019-03-10T21:27:50.235Z,100605.92
2019-03-10T21:30:20.684Z,100602.83
2019-03-10T21:32:49.105Z,100609.78
2019-03-10T21:35:18.337Z,100618.47
2019-03-10T21:37:46.905Z,100615.37
2019-03-10T21:40:26.357Z,100617.41
2019-03-10T21:42:54.773Z,100618.39
2019-03-10T21:45:23.196Z,100627.42
2019-03-10T21:47:51.626Z,100627.91
2019-03-10T21:50:20.127Z,100626.36
2019-03-10T21:52:48.586Z,100621.78
2019-03-10T21:55:17.837Z,100631.95
2019-03-10T21:57:46.297Z,100622.91
2019-03-10T22:00:16.815Z,100639.77
2019-03-10T22:02:45.252Z,100635.83
2019-03-10T22:05:14.896Z,100646.86
2019-03-10T22:07:43.317Z,100654.64
2019-03-10T22:10:26.280Z,100655.52
2019-03-10T22:12:47.457Z,100656.38
2019-03-10T22:15:16.937Z,100656.16
2019-03-10T22:17:45.425Z,100661.73
2019-03-10T22:20:15.964Z,100664.80
2019-03-10T22:22:49.339Z,100670.39
2019-03-10T22:25:15.200Z,100663.05
2019-03-10T22:27:45.801Z,100669.70
2019-03-10T22:30:19.232Z,100677.34
2019-03-10T22:32:47.660Z,100690.59
2019-03-10T22:35:16.347Z,100683.80
2019-03-10T22:37:44.957Z,100694.67
2019-03-10T22:40:15.664Z,100695.60
2019-03-10T22:42:44.069Z,100704.48
2019-03-10T22:45:20.111Z,100709.92
2019-03-10T22:47:48.617Z,100716.73
2019-03-10T22:50:17.456Z,100715.37
2019-03-10T22:52:46.982Z,100726.88
2019-03-10T22:55:16.158Z,100730.77
2019-03-10T22:57:44.569Z,100727.55
2019-03-10T23:00:18.182Z,100730.91
2019-03-10T23:02:46.615Z,100730.03
2019-03-10T23:05:15.207Z,100743.14
2019-03-10T23:07:43.685Z,100740.08
2019-03-10T23:10:14.229Z,100740.22
2019-03-10T23:12:42.839Z,100746.61
2019-03-10T23:15:13.100Z,100743.40
2019-03-10T23:17:41.604Z,100751.94
2019-03-10T23:20:16.617Z,100754.28
2019-03-10T23:22:45.138Z,100752.19
2019-03-10T23:25:13.875Z,100761.22
2019-03-10T23:27:42.393Z,100761.72
2019-03-10T23:30:16.733Z,100751.84
2019-03-10T23:32:45.155Z,100761.37
2019-03-10T23:35:13.657Z,100759.14
2019-03-10T23:37:42.222Z,100752.48
2019-03-10T23:40:15.064Z,100752.13
2019-03-10T23:42:43.565Z,100748.55
2019-03-10T23:45:18.722Z,100748.69
2019-03-10T23:47:47.512Z,100748.69
2019-03-10T23:50:17.295Z,100744.27
2019-03-10T23:52:45.875Z,100741.54
2019-03-10T23:55:14.728Z,100744.75
2019-03-10T23:57:43.202Z,100740.09
